createdAt,value
2022-10-05T00:01:28.723Z,31.47
2022-10-05T00:04:11.070Z,31.33
2022-10-05T00:06:38.408Z,31.49
2022-10-05T00:09:15.112Z,31.54
2022-10-05T00:11:42.637Z,31.55
2022-10-05T00:14:22.032Z,31.39
2022-10-05T00:16:49.880Z,31.35
2022-10-05T00:19:37.887Z,31.46
2022-10-05T00:22:12.244Z,31.31
2022-10-05T00:24:39.597Z,31.42
2022-10-05T00:27:24.583Z,31.83
2022-10-05T00:29:53.012Z,31.47
2022-10-05T00:32:20.189Z,31.39
2022-10-05T00:34:47.696Z,31.47
2022-10-05T00:37:15.033Z,31.42
2022-10-05T00:39:42.426Z,31.44
2022-10-05T00:42:27.120Z,31.38
2022-10-05T00:44:57.228Z,31.41
2022-10-05T00:47:35.049Z,31.35
2022-10-05T00:50:22.119Z,31.65
2022-10-05T00:53:05.781Z,31.59
2022-10-05T00:55:33.028Z,31.64
2022-10-05T00:58:00.194Z,31.41
2022-10-05T01:00:27.887Z,31.58
2022-10-05T01:03:02.620Z,31.60
2022-10-05T01:05:42.132Z,31.46
2022-10-05T01:08:34.833Z,31.69
2022-10-05T01:11:15.128Z,31.67
2022-10-05T01:13:47.115Z,31.41
2022-10-05T01:16:23.343Z,31.54
2022-10-05T01:18:57.288Z,31.47
2022-10-05T01:21:28.895Z,31.59
2022-10-05T01:24:09.866Z,31.50
2022-10-05T01:26:40.224Z,31.43
2022-10-05T01:29:10.301Z,31.20
2022-10-05T01:31:44.516Z,31.33
2022-10-05T01:34:20.977Z,31.57
2022-10-05T01:36:48.685Z,31.31
2022-10-05T01:39:31.264Z,31.05
2022-10-05T01:42:13.225Z,31.33
2022-10-05T01:44:41.107Z,31.05
2022-10-05T01:47:21.797Z,31.19
2022-10-05T01:50:01.304Z,31.03
2022-10-05T01:52:46.425Z,31.02
2022-10-05T01:55:23.118Z,31.53
2022-10-05T01:58:09.484Z,31.20
2022-10-05T02:01:00.831Z,31.01
2022-10-05T02:03:31.057Z,30.98
2022-10-05T02:06:01.017Z,30.93
2022-10-05T02:08:38.259Z,30.99
2022-10-05T02:11:08.843Z,31.36
2022-10-05T02:14:00.668Z,31.17
2022-10-05T02:16:41.915Z,31.17
2022-10-05T02:19:12.216Z,31.11
2022-10-05T02:21:45.149Z,31.17
2022-10-05T02:24:17.832Z,31.07
2022-10-05T02:26:46.950Z,30.91
2022-10-05T02:29:16.653Z,31.02
2022-10-05T02:31:50.705Z,31.06
2022-10-05T02:34:26.364Z,30.83
2022-10-05T02:37:04.078Z,30.89
2022-10-05T02:39:35.028Z,30.91
2022-10-05T02:42:02.320Z,31.05
2022-10-05T02:44:40.806Z,30.81
2022-10-05T02:47:08.062Z,31.09
2022-10-05T02:49:43.733Z,31.00
2022-10-05T02:52:11.235Z,31.02
2022-10-05T02:54:41.500Z,30.97
2022-10-05T02:57:28.981Z,30.77
2022-10-05T03:00:06.433Z,30.63
2022-10-05T03:02:39.480Z,30.74
2022-10-05T03:05:40.753Z,30.84
2022-10-05T03:08:08.752Z,30.80
2022-10-05T03:10:36.224Z,30.94
2022-10-05T03:13:16.709Z,30.78
2022-10-05T03:15:55.152Z,30.84
2022-10-05T03:18:32.356Z,30.65
2022-10-05T03:21:10.413Z,30.70
2022-10-05T03:23:37.725Z,30.83
2022-10-05T03:26:23.701Z,30.74
2022-10-05T03:28:58.869Z,30.72
2022-10-05T03:31:39.718Z,30.79
2022-10-05T03:34:11.380Z,30.79
2022-10-05T03:36:48.605Z,30.86
2022-10-05T03:39:30.796Z,31.10
2022-10-05T03:42:04.237Z,31.01
2022-10-05T03:44:44.967Z,30.80
2022-10-05T03:47:25.367Z,30.79
2022-10-05T03:50:01.286Z,30.71
2022-10-05T03:53:01.998Z,30.58
2022-10-05T03:55:42.156Z,30.95
2022-10-05T03:58:26.321Z,30.74
2022-10-05T04:00:56.424Z,30.74
2022-10-05T04:03:32.631Z,30.84
2022-10-05T04:06:04.285Z,31.01
2022-10-05T04:08:48.249Z,30.94
2022-10-05T04:11:22.217Z,30.88
2022-10-05T04:13:56.311Z,31.00
2022-10-05T04:16:33.902Z,30.85
2022-10-05T04:19:11.353Z,30.94
2022-10-05T04:21:45.424Z,31.10
2022-10-05T04:24:22.534Z,31.02
2022-10-05T04:26:53.383Z,31.60
2022-10-05T04:29:29.945Z,31.24
2022-10-05T04:32:05.323Z,31.14
2022-10-05T04:34:51.021Z,30.86
2022-10-05T04:37:21.920Z,31.21
2022-10-05T04:40:01.933Z,31.26
2022-10-05T04:42:44.484Z,31.29
2022-10-05T04:45:23.055Z,31.48
2022-10-05T04:47:50.397Z,31.38
2022-10-05T04:50:28.808Z,31.40
2022-10-05T04:53:14.384Z,31.21
2022-10-05T04:55:47.928Z,31.24
2022-10-05T04:58:36.742Z,31.27
2022-10-05T05:01:06.187Z,31.61
2022-10-05T05:03:52.637Z,31.41
2022-10-05T05:06:38.649Z,31.35
2022-10-05T05:09:20.953Z,31.09
2022-10-05T05:11:48.313Z,31.15
2022-10-05T05:14:15.490Z,31.46
2022-10-05T05:16:45.115Z,31.38
2022-10-05T05:19:31.765Z,31.42
2022-10-05T05:21:59.032Z,31.32
2022-10-05T05:24:29.881Z,31.40
2022-10-05T05:27:10.995Z,31.62
2022-10-05T05:29:54.110Z,31.59
2022-10-05T05:32:24.301Z,31.66
2022-10-05T05:35:03.861Z,31.37
2022-10-05T05:37:52.432Z,31.56
2022-10-05T05:40:33.541Z,31.66
2022-10-05T05:43:15.125Z,31.36
2022-10-05T05:45:43.725Z,31.67
2022-10-05T05:48:26.895Z,31.46
2022-10-05T05:51:10.780Z,31.29
2022-10-05T05:53:46.428Z,31.50
2022-10-05T05:56:16.861Z,31.62
2022-10-05T05:59:03.569Z,31.42
2022-10-05T06:01:44.178Z,31.57
2022-10-05T06:04:16.028Z,31.43
2022-10-05T06:06:47.258Z,31.28
2022-10-05T06:09:19.671Z,31.28
2022-10-05T06:12:13.320Z,31.60
2022-10-05T06:14:56.813Z,31.75
2022-10-05T06:17:33.227Z,31.68
2022-10-05T06:20:07.995Z,31.38
2022-10-05T06:22:38.896Z,31.63
2022-10-05T06:25:12.161Z,31.45
2022-10-05T06:28:00.373Z,31.39
2022-10-05T06:30:33.533Z,31.75
2022-10-05T06:33:18.026Z,31.19
2022-10-05T06:36:04.199Z,31.21
2022-10-05T06:38:54.913Z,31.19
2022-10-05T06:41:30.401Z,31.26
2022-10-05T06:44:00.189Z,31.28
2022-10-05T06:46:49.025Z,31.23
2022-10-05T06:49:46.159Z,31.75
2022-10-05T06:53:15.888Z,31.73
2022-10-05T06:55:58.268Z,31.34
2022-10-05T06:58:41.762Z,31.50
2022-10-05T07:01:21.295Z,31.35
2022-10-05T07:04:05.206Z,31.36
2022-10-05T07:06:35.595Z,31.38
2022-10-05T07:09:06.427Z,31.52
2022-10-05T07:11:44.381Z,31.67
2022-10-05T07:14:30.583Z,31.21
2022-10-05T07:16:58.869Z,31.54
2022-10-05T07:19:41.809Z,31.74
2022-10-05T07:22:34.230Z,31.64
2022-10-05T07:25:18.929Z,31.42
2022-10-05T07:28:07.305Z,31.39
2022-10-05T07:30:41.447Z,31.85
2022-10-05T07:33:17.855Z,31.73
2022-10-05T07:36:23.734Z,31.61
2022-10-05T07:39:17.517Z,31.84
2022-10-05T07:41:51.465Z,31.72
2022-10-05T07:44:29.545Z,31.98
2022-10-05T07:47:00.887Z,31.60
2022-10-05T07:49:48.105Z,31.76
2022-10-05T07:52:28.253Z,31.79
2022-10-05T07:55:03.535Z,31.90
2022-10-05T07:57:50.783Z,31.94
2022-10-05T08:00:20.360Z,31.87
2022-10-05T08:03:18.257Z,31.36
2022-10-05T08:05:47.036Z,31.67
2022-10-05T08:08:27.370Z,31.95
2022-10-05T08:11:06.875Z,31.68
2022-10-05T08:13:37.233Z,31.38
2022-10-05T08:16:06.664Z,31.70
2022-10-05T08:18:40.220Z,31.67
2022-10-05T08:21:12.068Z,32.11
2022-10-05T08:23:56.668Z,32.16
2022-10-05T08:26:35.946Z,31.81
2022-10-05T08:29:18.245Z,31.64
2022-10-05T08:31:59.257Z,31.74
2022-10-05T08:34:45.908Z,31.52
2022-10-05T08:37:32.291Z,31.84
2022-10-05T08:40:08.580Z,31.65
2022-10-05T08:42:47.766Z,31.35
2022-10-05T08:45:36.792Z,31.39
2022-10-05T08:48:19.349Z,31.82
2022-10-05T08:51:05.127Z,32.02
2022-10-05T08:53:32.337Z,31.74
2022-10-05T08:56:19.167Z,31.60
2022-10-05T08:59:04.940Z,31.47
2022-10-05T09:01:35.353Z,31.64
2022-10-05T09:04:21.116Z,31.54
2022-10-05T09:07:07.605Z,31.20
2022-10-05T09:09:37.684Z,31.41
2022-10-05T09:12:23.424Z,31.59
2022-10-05T09:15:20.547Z,31.50
2022-10-05T09:17:59.692Z,31.33
2022-10-05T09:20:32.824Z,31.61
2022-10-05T09:23:14.719Z,31.48
2022-10-05T09:25:56.385Z,31.41
2022-10-05T09:28:25.566Z,31.51
2022-10-05T09:30:55.793Z,31.47
2022-10-05T09:33:31.965Z,31.32
2022-10-05T09:36:02.119Z,31.46
2022-10-05T09:38:29.581Z,31.59
2022-10-05T09:41:15.272Z,31.56
2022-10-05T09:43:57.545Z,31.39
2022-10-05T09:46:54.380Z,31.41
2022-10-05T09:49:41.929Z,31.72
2022-10-05T09:52:29.398Z,31.47
2022-10-05T09:55:15.085Z,31.50
2022-10-05T09:57:46.394Z,31.73
2022-10-05T10:00:27.484Z,31.96
2022-10-05T10:03:15.165Z,31.86
2022-10-05T10:05:47.180Z,31.77
2022-10-05T10:08:22.361Z,31.61
2022-10-05T10:10:49.635Z,31.76
2022-10-05T10:13:35.557Z,31.82
2022-10-05T10:16:02.849Z,31.73
2022-10-05T10:18:45.995Z,31.76
2022-10-05T10:21:22.060Z,31.65
2022-10-05T10:24:04.361Z,31.93
2022-10-05T10:26:31.596Z,31.66
2022-10-05T10:29:10.702Z,31.77
2022-10-05T10:31:44.227Z,31.64
2022-10-05T10:34:30.158Z,31.67
2022-10-05T10:37:11.011Z,31.85
2022-10-05T10:39:53.603Z,31.57
2022-10-05T10:42:32.711Z,31.65
2022-10-05T10:45:29.304Z,31.52
2022-10-05T10:48:05.167Z,31.34
2022-10-05T10:50:50.820Z,31.52
2022-10-05T10:53:18.065Z,31.69
2022-10-05T10:56:03.817Z,31.74
2022-10-05T10:58:49.572Z,31.42
2022-10-05T11:01:36.919Z,31.65
2022-10-05T11:04:35.137Z,31.31
2022-10-05T11:07:21.147Z,31.48
2022-10-05T11:09:57.637Z,31.62
2022-10-05T11:12:40.199Z,31.51
2022-10-05T11:15:39.639Z,31.72
2022-10-05T11:18:10.453Z,31.71
2022-10-05T11:20:56.577Z,31.66
2022-10-05T11:23:38.833Z,31.48
2022-10-05T11:26:06.287Z,31.54
2022-10-05T11:28:46.068Z,31.68
2022-10-05T11:31:19.565Z,31.84
2022-10-05T11:33:52.849Z,31.87
2022-10-05T11:36:34.563Z,32.02
2022-10-05T11:39:20.741Z,31.58
2022-10-05T11:42:10.267Z,31.59
2022-10-05T11:44:40.260Z,31.88
2022-10-05T11:47:26.234Z,31.71
2022-10-05T11:50:05.763Z,31.74
2022-10-05T11:52:44.950Z,31.57
2022-10-05T11:55:24.259Z,31.69
2022-10-05T11:58:10.022Z,31.83
2022-10-05T12:00:43.734Z,32.16
2022-10-05T12:03:19.562Z,31.93
2022-10-05T12:05:57.943Z,31.97
2022-10-05T12:08:25.564Z,32.11
2022-10-05T12:11:11.932Z,32.13
2022-10-05T12:13:47.262Z,32.04
2022-10-05T12:16:21.912Z,32.02
2022-10-05T12:18:57.280Z,32.08
2022-10-05T12:21:33.802Z,32.13
2022-10-05T12:24:36.745Z,32.14
2022-10-05T12:27:09.805Z,32.21
2022-10-05T12:29:37.093Z,31.94
2022-10-05T12:32:07.231Z,32.01
2022-10-05T12:34:49.376Z,32.00
2022-10-05T12:37:32.170Z,31.94
2022-10-05T12:40:02.491Z,32.12
2022-10-05T12:42:36.980Z,31.74
2022-10-05T12:45:09.788Z,31.92
2022-10-05T12:47:55.798Z,32.01
2022-10-05T12:50:36.870Z,31.87
2022-10-05T12:53:22.708Z,32.05
2022-10-05T12:56:01.557Z,31.85
2022-10-05T12:58:28.893Z,32.04
2022-10-05T13:01:03.251Z,32.31
2022-10-05T13:03:34.479Z,32.06
2022-10-05T13:06:17.999Z,32.19
2022-10-05T13:08:56.174Z,32.18
2022-10-05T13:11:32.163Z,31.94
2022-10-05T13:14:17.359Z,31.79
2022-10-05T13:17:08.527Z,31.73
2022-10-05T13:19:42.380Z,31.81
2022-10-05T13:22:20.766Z,32.01
2022-10-05T13:24:53.889Z,32.25
2022-10-05T13:27:27.774Z,32.02
2022-10-05T13:30:02.290Z,32.15
2022-10-05T13:32:35.673Z,31.96
2022-10-05T13:35:28.088Z,31.90
2022-10-05T13:38:02.016Z,31.85
2022-10-05T13:40:35.368Z,31.94
2022-10-05T13:43:06.114Z,32.00
2022-10-05T13:45:33.433Z,32.00
2022-10-05T13:48:11.423Z,32.13
2022-10-05T13:50:45.018Z,32.02
2022-10-05T13:53:12.294Z,31.91
2022-10-05T13:55:45.381Z,32.16
2022-10-05T13:58:21.421Z,32.13
2022-10-05T14:00:53.185Z,32.32
2022-10-05T14:03:30.303Z,32.18
2022-10-05T14:05:59.957Z,31.98
2022-10-05T14:08:32.975Z,32.04
2022-10-05T14:11:20.223Z,32.14
2022-10-05T14:13:48.166Z,32.31
2022-10-05T14:16:20.280Z,31.97
2022-10-05T14:19:06.156Z,32.19
2022-10-05T14:21:43.979Z,31.80
2022-10-05T14:24:44.227Z,32.10
2022-10-05T14:27:22.976Z,31.85
2022-10-05T14:29:58.301Z,32.12
2022-10-05T14:32:27.178Z,31.76
2022-10-05T14:35:05.557Z,31.95
2022-10-05T14:37:43.437Z,31.93
2022-10-05T14:40:25.168Z,31.96
2022-10-05T14:42:52.516Z,32.22
2022-10-05T14:45:20.768Z,32.00
2022-10-05T14:47:52.715Z,32.17
2022-10-05T14:50:26.091Z,32.27
2022-10-05T14:53:11.432Z,32.17
2022-10-05T14:55:50.918Z,32.20
2022-10-05T14:58:35.127Z,31.96
2022-10-05T15:01:13.726Z,32.16
2022-10-05T15:03:46.786Z,31.91
2022-10-05T15:06:34.538Z,32.02
2022-10-05T15:09:01.795Z,31.91
2022-10-05T15:11:35.030Z,31.92
2022-10-05T15:14:06.298Z,32.00
2022-10-05T15:16:34.306Z,31.85
2022-10-05T15:19:01.574Z,32.10
2022-10-05T15:21:42.454Z,31.98
2022-10-05T15:24:17.237Z,32.20
2022-10-05T15:26:53.640Z,31.92
2022-10-05T15:29:26.084Z,31.81
2022-10-05T15:32:14.661Z,31.81
2022-10-05T15:35:04.008Z,31.77
2022-10-05T15:37:38.428Z,31.90
2022-10-05T15:40:17.991Z,31.44
2022-10-05T15:42:45.405Z,31.85
2022-10-05T15:45:20.777Z,31.72
2022-10-05T15:48:03.191Z,31.95
2022-10-05T15:50:35.216Z,31.83
2022-10-05T15:53:12.097Z,31.67
2022-10-05T15:55:39.339Z,31.60
2022-10-05T15:58:31.284Z,31.66
2022-10-05T16:01:03.862Z,31.56
2022-10-05T16:04:09.600Z,31.58
2022-10-05T16:07:03.886Z,31.40
2022-10-05T16:09:42.818Z,31.56
2022-10-05T16:12:13.007Z,31.85
2022-10-05T16:15:00.585Z,31.68
2022-10-05T16:17:45.345Z,31.62
2022-10-05T16:20:18.897Z,31.68
2022-10-05T16:23:02.679Z,31.68
2022-10-05T16:25:30.225Z,31.88
2022-10-05T16:28:05.641Z,31.99
2022-10-05T16:30:56.147Z,31.96
2022-10-05T16:33:32.500Z,31.69
2022-10-05T16:36:26.765Z,31.83
2022-10-05T16:38:54.303Z,31.74
2022-10-05T16:41:33.619Z,32.21
2022-10-05T16:44:10.030Z,31.92
2022-10-05T16:46:45.708Z,32.17
2022-10-05T16:49:16.104Z,32.16
2022-10-05T16:51:55.404Z,32.00
2022-10-05T16:54:31.803Z,31.90
2022-10-05T16:57:03.257Z,31.75
2022-10-05T16:59:36.450Z,31.91
2022-10-05T17:02:19.052Z,31.77
2022-10-05T17:04:58.077Z,31.99
2022-10-05T17:07:25.356Z,32.07
2022-10-05T17:10:03.281Z,31.94
2022-10-05T17:12:42.440Z,31.98
2022-10-05T17:15:17.937Z,31.73
2022-10-05T17:17:58.542Z,32.03
2022-10-05T17:20:40.190Z,32.03
2022-10-05T17:23:31.486Z,31.98
2022-10-05T17:26:14.034Z,31.64
2022-10-05T17:28:44.909Z,32.03
2022-10-05T17:31:16.848Z,32.03
2022-10-05T17:33:59.412Z,31.71
2022-10-05T17:36:45.440Z,32.04
2022-10-05T17:39:35.893Z,32.04
2022-10-05T17:42:21.717Z,31.93
2022-10-05T17:44:49.032Z,31.67
2022-10-05T17:47:36.149Z,31.67
2022-10-05T17:50:30.162Z,32.07
2022-10-05T17:53:34.863Z,31.94
2022-10-05T17:56:03.967Z,31.91
2022-10-05T17:58:31.103Z,31.97
2022-10-05T18:00:58.352Z,31.78
2022-10-05T18:03:44.618Z,31.88
2022-10-05T18:06:22.319Z,31.90
2022-10-05T18:08:50.016Z,32.11
2022-10-05T18:11:33.560Z,31.88
2022-10-05T18:14:19.812Z,32.14
2022-10-05T18:16:56.311Z,31.96
2022-10-05T18:19:24.087Z,32.32
2022-10-05T18:22:10.955Z,31.86
2022-10-05T18:25:04.107Z,31.99
2022-10-05T18:27:34.848Z,31.99
2022-10-05T18:30:09.065Z,32.12
2022-10-05T18:32:51.491Z,31.83
2022-10-05T18:35:21.621Z,32.07
2022-10-05T18:38:02.758Z,32.16
2022-10-05T18:40:36.951Z,32.26
2022-10-05T18:43:22.344Z,32.00
2022-10-05T18:46:09.271Z,32.09
2022-10-05T18:48:39.300Z,31.95
2022-10-05T18:51:06.569Z,32.25
2022-10-05T18:53:43.026Z,32.14
2022-10-05T18:56:10.372Z,31.95
2022-10-05T18:58:54.493Z,32.08
2022-10-05T19:01:35.151Z,31.97
2022-10-05T19:04:06.021Z,31.96
2022-10-05T19:06:39.527Z,31.99
2022-10-05T19:09:14.897Z,31.90
2022-10-05T19:11:44.944Z,32.10
2022-10-05T19:14:21.489Z,32.09
2022-10-05T19:16:48.813Z,32.34
2022-10-05T19:19:33.112Z,32.16
2022-10-05T19:22:09.849Z,31.67
2022-10-05T19:24:49.389Z,31.75
2022-10-05T19:27:42.243Z,31.75
2022-10-05T19:30:27.637Z,32.02
2022-10-05T19:33:13.500Z,32.20
2022-10-05T19:35:40.819Z,31.95
2022-10-05T19:38:15.377Z,32.16
2022-10-05T19:41:02.622Z,31.86
2022-10-05T19:43:30.124Z,32.00
2022-10-05T19:46:06.258Z,32.23
2022-10-05T19:48:40.726Z,31.82
2022-10-05T19:51:13.046Z,31.85
2022-10-05T19:53:45.944Z,31.86
2022-10-05T19:56:19.141Z,31.91
2022-10-05T19:58:47.264Z,31.94
2022-10-05T20:01:25.419Z,31.52
2022-10-05T20:03:53.265Z,31.74
2022-10-05T20:06:22.800Z,31.91
2022-10-05T20:08:52.060Z,32.01
2022-10-05T20:11:21.136Z,32.20
2022-10-05T20:13:55.123Z,31.87
2022-10-05T20:16:41.027Z,31.99
2022-10-05T20:19:45.813Z,31.88
2022-10-05T20:22:25.498Z,32.24
2022-10-05T20:24:54.282Z,32.38
2022-10-05T20:27:33.513Z,32.01
2022-10-05T20:30:02.184Z,32.01
2022-10-05T20:32:30.848Z,31.98
2022-10-05T20:34:58.643Z,32.29
2022-10-05T20:37:26.561Z,31.98
2022-10-05T20:39:53.952Z,32.01
2022-10-05T20:42:21.183Z,32.06
2022-10-05T20:44:52.967Z,31.94
2022-10-05T20:47:23.619Z,31.83
2022-10-05T20:49:50.825Z,32.22
2022-10-05T20:52:18.008Z,31.86
2022-10-05T20:57:14.064Z,31.97
2022-10-05T20:59:41.245Z,32.06
2022-10-05T21:02:08.758Z,32.06
2022-10-05T21:04:40.909Z,31.94
2022-10-05T21:07:09.113Z,32.08
2022-10-05T21:09:38.532Z,32.01
2022-10-05T21:12:05.925Z,32.00
2022-10-05T21:14:34.499Z,32.00
2022-10-05T21:17:03.773Z,31.91
2022-10-05T21:19:34.144Z,32.13
2022-10-05T21:22:02.628Z,32.02
2022-10-05T21:24:29.811Z,31.75
2022-10-05T21:26:57.611Z,31.83
2022-10-05T21:29:24.923Z,31.90
2022-10-05T21:31:52.311Z,31.89
2022-10-05T21:34:19.501Z,31.90
2022-10-05T21:36:46.838Z,32.17
2022-10-05T21:39:14.344Z,32.16
2022-10-05T21:41:41.572Z,31.86
2022-10-05T21:44:08.819Z,31.77
2022-10-05T21:46:38.168Z,31.95
2022-10-05T21:49:06.050Z,31.89
2022-10-05T21:51:34.055Z,31.91
2022-10-05T21:54:08.773Z,31.85
2022-10-05T21:56:37.803Z,31.93
2022-10-05T21:59:08.292Z,31.99
2022-10-05T22:01:38.265Z,31.86
2022-10-05T22:04:06.053Z,32.15
2022-10-05T22:06:33.896Z,31.85
2022-10-05T22:09:01.691Z,31.91
2022-10-05T22:11:29.172Z,31.76
2022-10-05T22:14:02.518Z,31.73
2022-10-05T22:16:34.419Z,31.56
2022-10-05T22:19:06.159Z,31.85
2022-10-05T22:21:38.021Z,31.69
2022-10-05T22:24:05.547Z,31.77
2022-10-05T22:26:33.352Z,31.70
2022-10-05T22:29:02.349Z,31.69
2022-10-05T22:31:29.666Z,31.68
2022-10-05T22:33:57.041Z,31.95
2022-10-05T22:36:24.662Z,31.94
2022-10-05T22:38:51.997Z,31.79
2022-10-05T22:41:20.591Z,32.04
2022-10-05T22:43:50.306Z,31.72
2022-10-05T22:46:24.206Z,31.85
2022-10-05T22:48:51.598Z,31.92
2022-10-05T22:51:18.862Z,31.98
2022-10-05T22:53:46.213Z,31.87
2022-10-05T22:56:13.827Z,32.05
2022-10-05T22:58:41.510Z,32.02
2022-10-05T23:01:12.672Z,32.00
2022-10-05T23:03:41.143Z,31.89
2022-10-05T23:06:19.397Z,31.88
2022-10-05T23:08:49.538Z,31.84
2022-10-05T23:11:22.688Z,31.94
2022-10-05T23:13:50.866Z,31.88
2022-10-05T23:16:21.874Z,31.98
2022-10-05T23:18:51.246Z,31.85
2022-10-05T23:21:19.805Z,31.85
2022-10-05T23:23:49.214Z,32.24
2022-10-05T23:26:17.215Z,32.22
2022-10-05T23:28:47.482Z,32.16
2022-10-05T23:31:16.194Z,32.20
2022-10-05T23:33:43.448Z,32.02
2022-10-05T23:36:32.374Z,31.97
2022-10-05T23:39:00.194Z,32.04
2022-10-05T23:41:27.450Z,31.76
2022-10-05T23:43:57.780Z,31.93
2022-10-05T23:46:25.088Z,32.03
2022-10-05T23:48:56.551Z,31.94
2022-10-05T23:51:24.161Z,31.98
2022-10-05T23:53:51.477Z,31.98
2022-10-05T23:56:19.429Z,31.97
2022-10-05T23:58:46.649Z,31.91
